Details From KNEW - Lakefront
To TNCM - St Maarten - Princess Juliana Intl
Flight Number -
Tags Generated
Created
Modified
Stats Distance 1,637 nm / 3,032 km
Max Altitude 0 ft / 0 m
Waypoints 7
Social Downloads 2
Likes 0
Share VATSIM

Download

Looking for another format? Having issues loading an existing format? Contact us
Advertisement - Login to hide

Notes

Generated

Route

KNEW KJ81O WULFF CAREY SMTTY PJM31 TNCM

ID Type Via Altitude Latitude Longitude Leg Dist Tot Dist Heading (true) Name
O KNEW APT - 0 ft / 0 m 30.03705˚ -90.03062˚ - 0 nm - Lakefront
KJ81O FIX - 0 ft / 0 m 28.50000˚ -86.00000˚ 230 nm 230 nm 113° / 115° -
WULFF FIX - 0 ft / 0 m 27.06754˚ -81.97916˚ 230 nm 460 nm 111° / 113° -
CAREY FIX - 0 ft / 0 m 25.59884˚ -78.22997˚ 220 nm 680 nm 113° / 114° -
SMTTY FIX - 0 ft / 0 m 23.78917˚ -74.00861˚ 254 nm 935 nm 114° / 116° -
PJM31 FIX - 0 ft / 0 m 18.10698˚ -63.21744˚ 694 nm 1630 nm 117° / 121° -
O TNCM APT - 0 ft / 0 m 18.03937˚ -63.11961˚ 6 nm 1636 nm 126° / 126° -

Altitude Profile

Advertisement - Login to hide

Weather


0- 5 10 15 20 25 30 35+ Temperature / ° C

Clouds and Precipitation
Forecast for 2017-12-12 18:00 UTC. Updated an hour ago

Ground ~20,000 ft ~40,000 ft Winds

KNEW

Details ICAO KNEW
Name Lakefront
Region United States
Timezone America/Chicago (UTC-6.0)
Stats Elevation 7 ft / 2 m (AMSL)
Location 30.041857° -90.027690°
Runways 3
Magnetic Variation 0.886° W

METAR

KNEW 121553Z 35012KT 10SM CLR 14/05 A3020 RMK AO2 SLP218 T01390050

Decode

TAF

KNEW 121134Z 1212/1312 27016KT P6SM SKC FM121400 35015G24KT P6SM SKC FM130200 34010KT P6SM SKC

Decode

Departure Runways

ID Width Length Bearing (true) Bearing (mag) Surface Threshold Offset Overrun Length
09 75 ft / 23 m 3,108 ft / 947 m 89.20° 90.09° Asphalt 0 ft / 0 m 59 ft / 18 m
18L 75 ft / 23 m 3,710 ft / 1,131 m 179.26° 180.15° Asphalt 0 ft / 0 m 0 ft / 0 m
18R 150 ft / 46 m 6,904 ft / 2,104 m 179.27° 180.16° Asphalt 240 ft / 73 m 0 ft / 0 m
27 75 ft / 23 m 3,108 ft / 947 m 269.20° 270.09° Asphalt 0 ft / 0 m 49 ft / 15 m
36L 150 ft / 46 m 6,904 ft / 2,104 m 359.27° 0.16° Asphalt 820 ft / 250 m 0 ft / 0 m
36R 75 ft / 23 m 3,710 ft / 1,131 m 359.26° 0.15° Asphalt 0 ft / 0 m 0 ft / 0 m

TNCM

Details ICAO TNCM (SXM)
Name St Maarten - Princess Juliana Intl
Region Caribbean Netherlands, Aruba, Curaçao, Sint Maarten
Timezone Unknown (UTC+0.0)
Stats Elevation 12 ft / 4 m (AMSL)
Location 18.040889° -63.108974°
Runways 1
Magnetic Variation 14.325° W

METAR

TNCM 121600Z 13007KT 090V180 9999 FEW020 29/22 Q1014 A2995 NOSIG

Decode

TAF

TAF TNCM 121129Z 1212/1312 07004KT P6SM FEW018 FM121430 14010KT P6SM SCT022 PROB30 1306/1312 -SHRA BKN018

Decode

Destination Runways

ID Width Length Bearing (true) Bearing (mag) Surface Threshold Offset Overrun Length
10 148 ft / 45 m 7,464 ft / 2,275 m 81.43° 95.75° Asphalt 0 ft / 0 m 151 ft / 46 m
28 148 ft / 45 m 7,464 ft / 2,275 m 261.44° 275.76° Asphalt 397 ft / 121 m 0 ft / 0 m